createdAt,value
2019-04-14T00:02:03.539Z,30.93
2019-04-14T00:04:33.920Z,29.03
2019-04-14T00:07:03.607Z,32.17
2019-04-14T00:09:33.642Z,34.23
2019-04-14T00:12:05.585Z,32.97
2019-04-14T00:14:33.656Z,33.17
2019-04-14T00:17:02.473Z,33.47
2019-04-14T00:19:31.028Z,33.73
2019-04-14T00:22:03.241Z,34.10
2019-04-14T00:24:32.085Z,34.67
2019-04-14T00:27:02.235Z,37.47
2019-04-14T00:29:30.892Z,36.00
2019-04-14T00:32:00.807Z,34.20
2019-04-14T00:34:31.436Z,32.67
2019-04-14T00:37:01.662Z,28.40
2019-04-14T00:39:31.901Z,32.90
2019-04-14T00:42:11.293Z,35.07
2019-04-14T00:44:47.422Z,35.53
2019-04-14T00:47:49.248Z,36.03
2019-04-14T00:50:07.891Z,35.47
2019-04-14T00:52:37.259Z,33.00
2019-04-14T00:55:07.728Z,34.77
2019-04-14T00:57:37.569Z,34.00
2019-04-14T01:00:08.269Z,33.80
2019-04-14T01:02:37.000Z,34.60
2019-04-14T01:05:07.359Z,35.07
2019-04-14T01:07:36.913Z,34.17
2019-04-14T01:10:08.097Z,34.63
2019-04-14T01:12:37.159Z,32.93
2019-04-14T01:15:07.189Z,31.90
2019-04-14T01:17:35.913Z,33.33
2019-04-14T01:20:06.206Z,33.57
2019-04-14T01:22:35.844Z,34.17
2019-04-14T01:25:08.564Z,35.80
2019-04-14T01:27:38.471Z,34.17
2019-04-14T01:30:08.821Z,34.60
2019-04-14T01:32:37.636Z,34.37
2019-04-14T01:35:07.498Z,34.90
2019-04-14T01:37:37.514Z,33.87
2019-04-14T01:40:07.672Z,34.23
2019-04-14T01:42:37.511Z,32.70
2019-04-14T01:45:08.565Z,34.17
2019-04-14T01:47:37.716Z,35.53
2019-04-14T01:50:08.386Z,34.27
2019-04-14T01:52:38.695Z,35.60
2019-04-14T01:55:18.590Z,34.93
2019-04-14T01:58:01.021Z,36.30
2019-04-14T02:00:49.503Z,35.17
2019-04-14T02:03:18.079Z,36.20
2019-04-14T02:05:47.458Z,35.80
2019-04-14T02:08:17.450Z,36.50
2019-04-14T02:10:47.717Z,36.60
2019-04-14T02:13:16.618Z,35.77
2019-04-14T02:15:46.470Z,39.37
2019-04-14T02:18:16.401Z,35.43
2019-04-14T02:20:46.747Z,37.10
2019-04-14T02:23:17.007Z,39.33
2019-04-14T02:25:47.091Z,36.73
2019-04-14T02:28:16.106Z,35.20
2019-04-14T02:30:53.631Z,36.93
2019-04-14T02:36:36.062Z,35.27
2019-04-14T02:38:52.870Z,37.53
2019-04-14T02:43:52.387Z,34.20
2019-04-14T02:46:13.881Z,36.33
2019-04-14T02:51:26.951Z,38.17
2019-04-14T02:56:16.635Z,39.27
2019-04-14T02:58:55.106Z,36.90
2019-04-14T03:03:43.930Z,40.90
2019-04-14T03:06:14.657Z,37.57
2019-04-14T03:08:52.133Z,38.93
2019-04-14T03:11:17.134Z,37.43
2019-04-14T03:13:52.215Z,40.10
2019-04-14T03:16:23.606Z,39.53
2019-04-14T03:23:57.863Z,35.73
2019-04-14T03:26:41.604Z,43.13
2019-04-14T03:29:21.315Z,39.17
2019-04-14T03:34:34.119Z,41.50
2019-04-14T03:37:31.544Z,41.87
2019-04-14T03:39:27.238Z,37.33
2019-04-14T03:41:56.841Z,39.47
2019-04-14T03:44:28.689Z,38.83
2019-04-14T03:47:00.086Z,39.57
2019-04-14T03:54:22.722Z,37.77
2019-04-14T03:56:48.742Z,38.47
2019-04-14T03:59:19.664Z,41.53
2019-04-14T04:01:50.071Z,40.57
2019-04-14T04:04:20.610Z,38.73
2019-04-14T04:06:49.413Z,38.20
2019-04-14T04:09:19.274Z,36.23
2019-04-14T04:11:48.043Z,39.57
2019-04-14T04:14:35.974Z,38.27
2019-04-14T04:17:12.466Z,44.60
2019-04-14T04:19:45.528Z,42.00
2019-04-14T04:22:32.570Z,40.67
2019-04-14T04:25:03.330Z,39.23
2019-04-14T04:27:33.551Z,42.00
2019-04-14T04:30:07.987Z,40.53
2019-04-14T04:32:51.452Z,40.00
2019-04-14T04:35:22.137Z,41.23
2019-04-14T04:37:56.092Z,39.83
2019-04-14T04:40:26.927Z,44.97
2019-04-14T04:42:56.839Z,39.37
2019-04-14T04:45:25.736Z,40.63
2019-04-14T04:47:55.526Z,40.37
2019-04-14T04:50:43.700Z,39.50
2019-04-14T04:53:13.650Z,42.63
2019-04-14T04:55:42.530Z,37.80
2019-04-14T04:58:12.755Z,39.10
2019-04-14T05:00:41.707Z,38.97
2019-04-14T05:03:10.401Z,37.97
2019-04-14T05:05:58.291Z,38.83
2019-04-14T05:08:26.945Z,39.00
2019-04-14T05:10:57.160Z,38.57
2019-04-14T05:13:46.839Z,37.50
2019-04-14T05:16:16.877Z,38.67
2019-04-14T05:18:46.300Z,41.87
2019-04-14T05:21:34.476Z,37.63
2019-04-14T05:24:03.081Z,40.03
2019-04-14T05:26:31.698Z,41.20
2019-04-14T05:29:01.536Z,37.27
2019-04-14T05:31:30.890Z,39.00
2019-04-14T05:34:00.639Z,39.33
2019-04-14T05:36:30.240Z,37.87
2019-04-14T05:39:00.184Z,41.93
2019-04-14T05:41:28.862Z,36.87
2019-04-14T05:44:01.157Z,35.87
2019-04-14T05:46:27.924Z,39.40
2019-04-14T05:48:57.779Z,41.07
2019-04-14T05:51:26.788Z,40.20
2019-04-14T05:53:56.563Z,40.90
2019-04-14T05:56:25.301Z,38.03
2019-04-14T05:58:53.951Z,39.53
2019-04-14T06:01:22.609Z,39.80
2019-04-14T06:03:51.813Z,37.07
2019-04-14T06:06:20.384Z,37.17
2019-04-14T06:08:49.189Z,39.47
2019-04-14T06:11:20.464Z,39.77
2019-04-14T06:13:49.152Z,37.90
2019-04-14T06:16:17.904Z,39.20
2019-04-14T06:18:46.545Z,38.00
2019-04-14T06:21:15.219Z,38.53
2019-04-14T06:23:43.917Z,37.73
2019-04-14T06:26:12.477Z,37.93
2019-04-14T06:28:41.032Z,36.63
2019-04-14T06:31:11.391Z,36.80
2019-04-14T06:33:54.097Z,35.10
2019-04-14T06:36:24.467Z,37.47
2019-04-14T06:38:54.675Z,37.27
2019-04-14T06:41:23.340Z,35.83
2019-04-14T06:43:52.069Z,36.73
2019-04-14T06:46:20.781Z,36.23
2019-04-14T06:48:49.411Z,35.10
2019-04-14T06:51:18.002Z,33.90
2019-04-14T06:53:46.600Z,35.40
2019-04-14T06:56:15.239Z,37.33
2019-04-14T06:58:46.832Z,34.53
2019-04-14T07:01:16.746Z,33.43
2019-04-14T07:03:45.248Z,36.27
2019-04-14T07:06:13.966Z,35.97
2019-04-14T07:08:42.622Z,33.93
2019-04-14T07:11:11.200Z,35.73
2019-04-14T07:13:40.092Z,37.03
2019-04-14T07:16:09.114Z,32.57
2019-04-14T07:18:37.833Z,31.53
2019-04-14T07:21:06.403Z,33.33
2019-04-14T07:23:34.971Z,31.17
2019-04-14T07:26:04.525Z,33.00
2019-04-14T07:28:33.104Z,33.30
2019-04-14T07:31:19.820Z,34.27
2019-04-14T07:34:05.027Z,35.57
2019-04-14T07:36:41.687Z,36.30
2019-04-14T07:39:28.282Z,34.03
2019-04-14T07:42:16.826Z,36.20
2019-04-14T07:44:59.180Z,32.40
2019-04-14T07:47:44.631Z,33.93
2019-04-14T07:50:15.341Z,33.60
2019-04-14T07:53:02.893Z,33.43
2019-04-14T07:55:36.474Z,33.50
2019-04-14T07:58:15.738Z,37.17
2019-04-14T08:00:45.955Z,30.63
2019-04-14T08:03:24.809Z,34.13
2019-04-14T08:05:53.485Z,29.50
2019-04-14T08:08:22.100Z,31.60
2019-04-14T08:10:50.811Z,32.50
2019-04-14T08:13:19.516Z,29.43
2019-04-14T08:15:48.341Z,30.77
2019-04-14T08:18:16.908Z,30.30
2019-04-14T08:21:05.008Z,33.43
2019-04-14T08:23:33.700Z,29.37
2019-04-14T08:26:02.397Z,32.43
2019-04-14T08:28:31.151Z,28.57
2019-04-14T08:30:59.756Z,29.93
2019-04-14T08:33:28.428Z,29.80
2019-04-14T08:35:57.199Z,30.03
2019-04-14T08:38:26.115Z,29.57
2019-04-14T08:40:54.715Z,43.33
2019-04-14T08:43:33.939Z,29.93
2019-04-14T08:46:04.236Z,29.17
2019-04-14T08:48:34.494Z,29.93
2019-04-14T08:51:07.475Z,32.10
2019-04-14T08:53:37.760Z,31.07
2019-04-14T08:56:19.627Z,30.80
2019-04-14T08:59:07.760Z,29.87
2019-04-14T09:01:40.520Z,33.87
2019-04-14T09:04:16.343Z,32.30
2019-04-14T09:06:49.365Z,27.80
2019-04-14T09:09:25.561Z,30.27
2019-04-14T09:11:58.966Z,30.60
2019-04-14T09:14:27.606Z,28.67
2019-04-14T09:16:56.167Z,29.47
2019-04-14T09:19:25.249Z,35.93
2019-04-14T09:21:53.844Z,29.50
2019-04-14T09:24:22.426Z,32.80
2019-04-14T09:26:51.075Z,31.57
2019-04-14T09:29:19.666Z,26.60
2019-04-14T09:31:48.208Z,31.07
2019-04-14T09:34:17.069Z,31.20
2019-04-14T09:36:45.623Z,35.27
2019-04-14T09:39:14.332Z,33.37
2019-04-14T09:41:42.993Z,29.63
2019-04-14T09:44:30.936Z,29.53
2019-04-14T09:46:59.681Z,27.13
2019-04-14T09:49:28.353Z,32.23
2019-04-14T09:51:56.935Z,31.63
2019-04-14T09:54:25.560Z,29.73
2019-04-14T09:56:59.636Z,28.37
2019-04-14T09:59:28.713Z,28.47
2019-04-14T10:01:57.801Z,29.20
2019-04-14T10:04:26.466Z,29.50
2019-04-14T10:06:55.176Z,30.43
2019-04-14T10:09:23.936Z,32.07
2019-04-14T10:11:54.812Z,28.33
2019-04-14T10:14:23.190Z,28.57
2019-04-14T10:16:51.763Z,28.60
2019-04-14T10:19:20.375Z,31.33
2019-04-14T10:21:49.007Z,29.00
2019-04-14T10:24:17.751Z,33.33
2019-04-14T10:26:46.610Z,27.20
2019-04-14T10:29:15.219Z,27.80
2019-04-14T10:31:43.830Z,25.60
2019-04-14T10:34:12.491Z,27.97
2019-04-14T10:37:00.436Z,27.47
2019-04-14T10:39:29.021Z,30.17
2019-04-14T10:41:57.620Z,27.23
2019-04-14T10:44:26.824Z,25.60
2019-04-14T10:46:55.419Z,27.17
2019-04-14T10:49:43.391Z,26.30
2019-04-14T10:52:12.028Z,26.27
2019-04-14T10:54:40.745Z,28.03
2019-04-14T10:57:09.411Z,24.07
2019-04-14T10:59:37.985Z,28.47
2019-04-14T11:02:06.996Z,24.07
2019-04-14T11:04:35.583Z,27.30
2019-04-14T11:07:08.659Z,25.17
2019-04-14T11:09:37.319Z,27.03
2019-04-14T11:12:06.229Z,27.43
2019-04-14T11:14:34.971Z,26.00
2019-04-14T11:17:03.635Z,24.90
2019-04-14T11:19:32.294Z,29.83
2019-04-14T11:22:00.892Z,29.90
2019-04-14T11:24:29.560Z,30.83
2019-04-14T11:26:58.252Z,30.63
2019-04-14T11:29:29.885Z,27.37
2019-04-14T11:32:05.626Z,26.77
2019-04-14T11:34:38.751Z,24.73
2019-04-14T11:37:09.044Z,29.60
2019-04-14T11:39:37.657Z,28.73
2019-04-14T11:42:06.240Z,25.87
2019-04-14T11:44:34.832Z,30.80
2019-04-14T11:47:03.926Z,24.93
2019-04-14T11:49:34.012Z,25.90
2019-04-14T11:52:02.520Z,28.90
2019-04-14T11:54:31.212Z,26.43
2019-04-14T11:57:01.072Z,28.47
2019-04-14T12:02:12.259Z,24.90
2019-04-14T12:04:42.531Z,23.97
2019-04-14T12:07:22.668Z,23.27
2019-04-14T12:09:55.935Z,24.57
2019-04-14T12:12:24.602Z,26.57
2019-04-14T12:14:53.235Z,24.97
2019-04-14T12:17:21.944Z,24.10
2019-04-14T12:19:51.244Z,25.23
2019-04-14T12:22:19.939Z,22.80
2019-04-14T12:24:48.800Z,25.07
2019-04-14T12:27:17.585Z,26.73
2019-04-14T12:29:46.143Z,27.53
2019-04-14T12:32:15.657Z,22.87
2019-04-14T12:34:44.232Z,22.43
2019-04-14T12:37:14.751Z,22.30
2019-04-14T12:39:43.379Z,22.37
2019-04-14T12:42:29.057Z,22.53
2019-04-14T12:45:08.573Z,22.73
2019-04-14T12:47:51.125Z,19.07
2019-04-14T12:50:27.316Z,23.50
2019-04-14T12:52:56.279Z,25.27
2019-04-14T12:55:24.893Z,17.80
2019-04-14T12:57:57.673Z,21.97
2019-04-14T13:00:47.310Z,19.50
2019-04-14T13:03:16.077Z,20.47
2019-04-14T13:05:44.732Z,21.20
2019-04-14T13:08:13.416Z,18.00
2019-04-14T13:10:42.715Z,19.00
2019-04-14T13:13:11.497Z,23.60
2019-04-14T13:15:40.495Z,21.40
2019-04-14T13:18:09.391Z,17.03
2019-04-14T13:20:37.977Z,18.70
2019-04-14T13:23:06.622Z,19.27
2019-04-14T13:25:35.381Z,18.33
2019-04-14T13:28:04.114Z,21.87
2019-04-14T13:30:34.359Z,19.57
2019-04-14T13:33:04.344Z,19.30
2019-04-14T13:35:32.997Z,17.17
2019-04-14T13:38:01.754Z,19.80
2019-04-14T13:40:30.341Z,17.97
2019-04-14T13:42:59.049Z,20.30
2019-04-14T13:45:27.763Z,24.10
2019-04-14T13:47:56.447Z,20.40
2019-04-14T13:50:25.371Z,22.37
2019-04-14T13:52:54.045Z,22.07
2019-04-14T13:55:22.755Z,21.00
2019-04-14T13:57:51.580Z,19.70
2019-04-14T14:00:22.628Z,21.60
2019-04-14T14:02:51.332Z,21.73
2019-04-14T14:05:20.151Z,18.97
2019-04-14T14:07:48.899Z,17.63
2019-04-14T14:10:17.948Z,20.33
2019-04-14T14:12:50.133Z,17.53
2019-04-14T14:15:26.400Z,20.13
2019-04-14T14:17:56.795Z,16.60
2019-04-14T14:20:39.016Z,21.47
2019-04-14T14:23:09.340Z,17.33
2019-04-14T14:25:39.870Z,15.83
2019-04-14T14:28:08.512Z,15.73
2019-04-14T14:30:37.360Z,17.20
2019-04-14T14:33:06.424Z,16.57
2019-04-14T14:35:34.992Z,15.60
2019-04-14T14:38:03.913Z,15.63
2019-04-14T14:40:32.719Z,14.67
2019-04-14T14:43:03.223Z,16.20
2019-04-14T14:45:48.649Z,15.80
2019-04-14T14:48:27.919Z,20.33
2019-04-14T14:51:01.315Z,17.67
2019-04-14T14:53:29.918Z,13.90
2019-04-14T14:55:58.688Z,18.17
2019-04-14T14:58:27.724Z,15.20
2019-04-14T15:00:56.460Z,15.23
2019-04-14T15:03:26.775Z,15.47
2019-04-14T15:05:55.434Z,17.53
2019-04-14T15:08:25.673Z,16.23
2019-04-14T15:10:54.213Z,16.43
2019-04-14T15:13:23.354Z,16.20
2019-04-14T15:15:52.084Z,17.50
2019-04-14T15:18:20.743Z,19.53
2019-04-14T15:20:49.565Z,17.10
2019-04-14T15:23:24.797Z,14.47
2019-04-14T15:25:48.580Z,15.67
2019-04-14T15:28:17.165Z,15.10
2019-04-14T15:30:45.980Z,16.30
2019-04-14T15:33:14.568Z,17.23
2019-04-14T15:35:43.304Z,18.17
2019-04-14T15:38:11.900Z,15.80
2019-04-14T15:40:47.168Z,16.03
2019-04-14T15:43:17.188Z,19.07
2019-04-14T15:45:45.798Z,17.77
2019-04-14T15:48:14.420Z,18.67
2019-04-14T15:50:43.075Z,16.60
2019-04-14T15:53:11.751Z,15.70
2019-04-14T15:55:40.341Z,17.70
2019-04-14T15:58:14.859Z,16.57
2019-04-14T16:00:46.589Z,16.93
2019-04-14T16:03:19.422Z,18.20
2019-04-14T16:05:49.813Z,18.03
2019-04-14T16:08:23.122Z,18.03
2019-04-14T16:10:53.403Z,18.47
2019-04-14T16:13:35.910Z,15.93
2019-04-14T16:16:12.449Z,18.20
2019-04-14T16:18:45.391Z,16.47
2019-04-14T16:21:14.516Z,20.17
2019-04-14T16:23:50.312Z,14.93
2019-04-14T16:26:21.084Z,18.53
2019-04-14T16:28:51.412Z,19.87
2019-04-14T16:31:38.013Z,19.60
2019-04-14T16:34:14.120Z,16.43
2019-04-14T16:36:44.492Z,19.40
2019-04-14T16:39:13.514Z,17.40
2019-04-14T16:41:42.252Z,20.53
2019-04-14T16:44:11.261Z,17.23
2019-04-14T16:46:39.852Z,17.27
2019-04-14T16:49:08.444Z,18.60
2019-04-14T16:51:41.425Z,15.10
2019-04-14T16:54:14.508Z,17.03
2019-04-14T16:56:47.500Z,16.37
2019-04-14T16:59:16.086Z,17.77
2019-04-14T17:01:45.595Z,16.17
2019-04-14T17:04:14.383Z,15.57
2019-04-14T17:06:43.300Z,17.93
2019-04-14T17:09:12.195Z,18.73
2019-04-14T17:11:40.808Z,15.63
2019-04-14T17:14:11.172Z,19.27
2019-04-14T17:16:41.390Z,17.47
2019-04-14T17:19:11.623Z,13.83
2019-04-14T17:21:44.704Z,17.03
2019-04-14T17:24:24.344Z,15.47
2019-04-14T17:27:03.576Z,17.33
2019-04-14T17:29:43.015Z,17.03
2019-04-14T17:32:13.203Z,15.73
2019-04-14T17:34:46.275Z,15.87
2019-04-14T17:37:22.490Z,14.83
2019-04-14T17:39:52.944Z,17.57
2019-04-14T17:42:38.292Z,16.20
2019-04-14T17:45:27.543Z,13.80
2019-04-14T17:48:00.779Z,14.40
2019-04-14T17:50:40.441Z,15.10
2019-04-14T17:53:11.789Z,16.50
2019-04-14T17:56:00.090Z,14.93
2019-04-14T17:58:48.249Z,14.50
2019-04-14T18:01:31.068Z,13.93
2019-04-14T18:04:13.199Z,15.37
2019-04-14T18:06:52.639Z,14.13
2019-04-14T18:09:22.895Z,13.93
2019-04-14T18:12:05.095Z,13.73
2019-04-14T18:14:41.284Z,15.17
2019-04-14T18:17:14.482Z,12.23
2019-04-14T18:19:50.893Z,13.43
2019-04-14T18:22:19.559Z,15.20
2019-04-14T18:24:48.145Z,13.50
2019-04-14T18:27:16.775Z,14.53
2019-04-14T18:29:47.039Z,15.20
2019-04-14T18:32:23.382Z,15.90
2019-04-14T18:35:02.742Z,13.63
2019-04-14T18:37:33.018Z,13.40
2019-04-14T18:40:06.644Z,15.17
2019-04-14T18:42:36.935Z,15.57
2019-04-14T18:45:11.374Z,15.17
2019-04-14T18:47:47.376Z,14.33
2019-04-14T18:50:17.931Z,14.97
2019-04-14T18:52:51.397Z,14.40
2019-04-14T18:55:30.508Z,14.33
2019-04-14T18:58:19.099Z,13.93
2019-04-14T19:00:52.629Z,16.97
2019-04-14T19:03:21.282Z,13.37
2019-04-14T19:05:50.020Z,12.80
2019-04-14T19:08:18.690Z,13.83
2019-04-14T19:10:49.047Z,14.40
2019-04-14T19:13:28.384Z,12.00
2019-04-14T19:16:04.543Z,14.30
2019-04-14T19:18:44.052Z,14.27
2019-04-14T19:21:14.364Z,12.67
2019-04-14T19:23:43.025Z,11.10
2019-04-14T19:26:11.741Z,14.00
2019-04-14T19:28:40.334Z,14.03
2019-04-14T19:31:09.214Z,12.07
2019-04-14T19:33:42.167Z,12.40
2019-04-14T19:36:10.830Z,11.57
2019-04-14T19:38:39.575Z,12.97
2019-04-14T19:41:08.208Z,13.83
2019-04-14T19:43:36.815Z,14.17
2019-04-14T19:46:05.772Z,13.70
2019-04-14T19:48:34.495Z,18.07
2019-04-14T19:51:03.393Z,13.90
2019-04-14T19:53:32.116Z,14.77
2019-04-14T19:56:01.041Z,15.77
2019-04-14T19:58:29.626Z,13.10
2019-04-14T20:00:59.054Z,14.13
2019-04-14T20:03:27.852Z,15.07
2019-04-14T20:05:56.603Z,12.13
2019-04-14T20:08:25.225Z,13.13
2019-04-14T20:10:53.904Z,12.93
2019-04-14T20:13:22.836Z,12.97
2019-04-14T20:16:01.722Z,14.17
2019-04-14T20:18:40.917Z,14.27
2019-04-14T20:21:27.843Z,13.23
2019-04-14T20:24:07.359Z,13.00
2019-04-14T20:26:54.115Z,11.60
2019-04-14T20:29:26.892Z,12.80
2019-04-14T20:32:13.767Z,12.97
2019-04-14T20:34:42.750Z,12.80
2019-04-14T20:37:11.678Z,12.30
2019-04-14T20:39:40.420Z,13.00
2019-04-14T20:42:09.568Z,13.43
2019-04-14T20:44:38.438Z,12.53
2019-04-14T20:47:08.458Z,11.83
2019-04-14T20:49:37.808Z,11.90
2019-04-14T20:52:06.631Z,14.70
2019-04-14T20:54:35.309Z,11.40
2019-04-14T20:57:04.023Z,15.47
2019-04-14T20:59:32.707Z,12.43
2019-04-14T21:02:19.754Z,12.20
2019-04-14T21:04:55.883Z,12.67
2019-04-14T21:07:44.564Z,14.00
2019-04-14T21:10:17.249Z,14.73
2019-04-14T21:12:47.799Z,11.90
2019-04-14T21:15:18.156Z,11.57
2019-04-14T21:18:04.789Z,12.67
2019-04-14T21:20:51.948Z,12.83
2019-04-14T21:23:38.412Z,13.80
2019-04-14T21:26:08.963Z,12.13
2019-04-14T21:28:48.119Z,11.53
2019-04-14T21:31:30.448Z,12.53
2019-04-14T21:34:00.725Z,12.77
2019-04-14T21:36:31.033Z,11.47
2019-04-14T21:39:10.203Z,13.17
2019-04-14T21:41:41.143Z,13.97
2019-04-14T21:44:09.640Z,11.30
2019-04-14T21:46:38.303Z,13.50
2019-04-14T21:49:06.943Z,13.03
2019-04-14T21:51:46.181Z,13.80
2019-04-14T21:54:14.916Z,12.37
2019-04-14T21:56:44.678Z,11.67
2019-04-14T21:59:14.878Z,10.87
2019-04-14T22:02:01.645Z,11.53
2019-04-14T22:04:43.845Z,10.90
2019-04-14T22:07:29.345Z,10.87
2019-04-14T22:09:59.688Z,11.37
2019-04-14T22:12:28.972Z,13.70
2019-04-14T22:14:57.708Z,12.60
2019-04-14T22:17:26.628Z,13.10
2019-04-14T22:19:55.209Z,11.00
2019-04-14T22:22:24.030Z,11.13
2019-04-14T22:24:53.323Z,11.17
2019-04-14T22:27:21.952Z,11.43
2019-04-14T22:29:50.565Z,13.60
2019-04-14T22:32:19.297Z,12.30
2019-04-14T22:34:49.268Z,12.83
2019-04-14T22:37:17.850Z,15.60
2019-04-14T22:39:46.522Z,11.53
2019-04-14T22:42:15.272Z,12.83
2019-04-14T22:44:43.986Z,13.53
2019-04-14T22:47:12.571Z,14.00
2019-04-14T22:49:42.154Z,14.17
2019-04-14T22:52:11.031Z,16.17
2019-04-14T22:54:39.799Z,14.60
2019-04-14T22:57:08.442Z,12.07
2019-04-14T22:59:37.025Z,11.20
2019-04-14T23:02:23.746Z,12.17
2019-04-14T23:04:54.342Z,13.60
2019-04-14T23:07:40.932Z,10.60
2019-04-14T23:10:14.321Z,11.23
2019-04-14T23:12:47.519Z,15.00
2019-04-14T23:15:26.627Z,11.93
2019-04-14T23:17:56.996Z,14.50
2019-04-14T23:20:27.321Z,12.47
2019-04-14T23:23:09.478Z,14.13
2019-04-14T23:25:38.188Z,12.83
2019-04-14T23:28:07.057Z,11.07
2019-04-14T23:30:35.790Z,11.47
2019-04-14T23:33:04.634Z,13.10
2019-04-14T23:35:33.215Z,10.63
2019-04-14T23:38:01.925Z,12.60
2019-04-14T23:40:30.692Z,9.83
2019-04-14T23:42:59.656Z,11.37
2019-04-14T23:45:28.654Z,9.77
2019-04-14T23:47:57.237Z,9.93
2019-04-14T23:50:25.923Z,11.47
2019-04-14T23:52:54.481Z,11.13
2019-04-14T23:55:23.139Z,10.43
2019-04-14T23:57:51.803Z,10.20
